sensor_id;sensor_type;location;lat;lon;timestamp;P1;durP1;ratioP1;P2;durP2;ratioP2
3712;SDS011;1872;51.406;6.856;2023-05-10T00:02:14;16.63;;;9.80;;
3712;SDS011;1872;51.406;6.856;2023-05-10T00:04:40;13.83;;;10.03;;
3712;SDS011;1872;51.406;6.856;2023-05-10T00:07:06;13.00;;;9.57;;
3712;SDS011;1872;51.406;6.856;2023-05-10T00:09:32;17.17;;;10.93;;
3712;SDS011;1872;51.406;6.856;2023-05-10T00:11:58;13.30;;;9.63;;
3712;SDS011;1872;51.406;6.856;2023-05-10T00:14:24;13.70;;;9.53;;
3712;SDS011;1872;51.406;6.856;2023-05-10T00:16:50;12.93;;;10.10;;
3712;SDS011;1872;51.406;6.856;2023-05-10T00:19:17;17.40;;;11.53;;
3712;SDS011;1872;51.406;6.856;2023-05-10T00:21:42;16.37;;;10.03;;
3712;SDS011;1872;51.406;6.856;2023-05-10T00:24:08;15.43;;;11.00;;
3712;SDS011;1872;51.406;6.856;2023-05-10T00:26:34;12.60;;;10.20;;
3712;SDS011;1872;51.406;6.856;2023-05-10T00:29:00;18.20;;;10.00;;
3712;SDS011;1872;51.406;6.856;2023-05-10T00:31:26;12.57;;;8.70;;
3712;SDS011;1872;51.406;6.856;2023-05-10T00:33:52;13.83;;;9.70;;
3712;SDS011;1872;51.406;6.856;2023-05-10T00:36:18;13.00;;;9.20;;
3712;SDS011;1872;51.406;6.856;2023-05-10T00:38:43;13.47;;;8.23;;
3712;SDS011;1872;51.406;6.856;2023-05-10T00:41:09;12.87;;;9.20;;
3712;SDS011;1872;51.406;6.856;2023-05-10T00:43:36;12.63;;;9.10;;
3712;SDS011;1872;51.406;6.856;2023-05-10T00:46:01;13.93;;;8.90;;
3712;SDS011;1872;51.406;6.856;2023-05-10T00:48:28;15.03;;;10.47;;
3712;SDS011;1872;51.406;6.856;2023-05-10T00:50:54;14.90;;;10.10;;
3712;SDS011;1872;51.406;6.856;2023-05-10T00:53:20;16.47;;;10.60;;
3712;SDS011;1872;51.406;6.856;2023-05-10T00:55:46;14.17;;;10.53;;
3712;SDS011;1872;51.406;6.856;2023-05-10T00:58:13;13.50;;;10.23;;
3712;SDS011;1872;51.406;6.856;2023-05-10T01:00:39;13.00;;;9.90;;
3712;SDS011;1872;51.406;6.856;2023-05-10T01:03:07;13.77;;;10.27;;
3712;SDS011;1872;51.406;6.856;2023-05-10T01:05:33;16.30;;;11.13;;
3712;SDS011;1872;51.406;6.856;2023-05-10T01:07:59;15.77;;;10.87;;
3712;SDS011;1872;51.406;6.856;2023-05-10T01:10:24;17.27;;;10.13;;
3712;SDS011;1872;51.406;6.856;2023-05-10T01:12:51;14.73;;;11.30;;
3712;SDS011;1872;51.406;6.856;2023-05-10T01:15:16;15.03;;;10.40;;
3712;SDS011;1872;51.406;6.856;2023-05-10T01:17:44;15.43;;;10.43;;
3712;SDS011;1872;51.406;6.856;2023-05-10T01:20:14;20.97;;;12.90;;
3712;SDS011;1872;51.406;6.856;2023-05-10T01:25:31;14.60;;;10.47;;
3712;SDS011;1872;51.406;6.856;2023-05-10T01:36:40;15.17;;;10.00;;
3712;SDS011;1872;51.406;6.856;2023-05-10T01:42:16;15.00;;;10.30;;
3712;SDS011;1872;51.406;6.856;2023-05-10T01:44:49;15.83;;;12.13;;
3712;SDS011;1872;51.406;6.856;2023-05-10T01:47:31;16.70;;;11.07;;
3712;SDS011;1872;51.406;6.856;2023-05-10T01:50:03;16.60;;;11.23;;
3712;SDS011;1872;51.406;6.856;2023-05-10T01:52:33;15.30;;;10.60;;
3712;SDS011;1872;51.406;6.856;2023-05-10T01:55:06;16.67;;;11.80;;
3712;SDS011;1872;51.406;6.856;2023-05-10T01:57:36;17.77;;;11.80;;
3712;SDS011;1872;51.406;6.856;2023-05-10T02:00:05;19.03;;;12.63;;
3712;SDS011;1872;51.406;6.856;2023-05-10T02:02:33;17.20;;;12.60;;
3712;SDS011;1872;51.406;6.856;2023-05-10T02:05:02;18.03;;;11.40;;
3712;SDS011;1872;51.406;6.856;2023-05-10T02:07:30;17.60;;;11.67;;
3712;SDS011;1872;51.406;6.856;2023-05-10T02:09:58;16.43;;;11.00;;
3712;SDS011;1872;51.406;6.856;2023-05-10T02:12:25;18.00;;;12.53;;
3712;SDS011;1872;51.406;6.856;2023-05-10T02:14:53;20.50;;;12.77;;
3712;SDS011;1872;51.406;6.856;2023-05-10T02:17:21;18.80;;;12.90;;
3712;SDS011;1872;51.406;6.856;2023-05-10T02:19:49;19.00;;;11.97;;
3712;SDS011;1872;51.406;6.856;2023-05-10T02:22:17;16.63;;;12.43;;
3712;SDS011;1872;51.406;6.856;2023-05-10T02:24:44;20.13;;;12.67;;
3712;SDS011;1872;51.406;6.856;2023-05-10T02:27:12;17.93;;;12.43;;
3712;SDS011;1872;51.406;6.856;2023-05-10T02:29:40;18.30;;;12.60;;
3712;SDS011;1872;51.406;6.856;2023-05-10T02:32:07;18.40;;;12.13;;
3712;SDS011;1872;51.406;6.856;2023-05-10T02:34:35;18.47;;;11.13;;
3712;SDS011;1872;51.406;6.856;2023-05-10T02:37:02;19.07;;;12.67;;
3712;SDS011;1872;51.406;6.856;2023-05-10T02:39:28;19.83;;;11.40;;
3712;SDS011;1872;51.406;6.856;2023-05-10T02:41:56;19.23;;;11.57;;
3712;SDS011;1872;51.406;6.856;2023-05-10T02:44:23;18.67;;;12.63;;
3712;SDS011;1872;51.406;6.856;2023-05-10T02:46:52;19.53;;;12.07;;
3712;SDS011;1872;51.406;6.856;2023-05-10T02:49:21;17.67;;;11.87;;
3712;SDS011;1872;51.406;6.856;2023-05-10T02:51:47;16.60;;;11.90;;
3712;SDS011;1872;51.406;6.856;2023-05-10T02:54:19;18.60;;;11.90;;
3712;SDS011;1872;51.406;6.856;2023-05-10T02:56:54;15.03;;;10.57;;
3712;SDS011;1872;51.406;6.856;2023-05-10T02:59:25;18.87;;;11.30;;
3712;SDS011;1872;51.406;6.856;2023-05-10T03:01:52;18.37;;;12.00;;
3712;SDS011;1872;51.406;6.856;2023-05-10T03:04:17;19.57;;;12.17;;
3712;SDS011;1872;51.406;6.856;2023-05-10T03:06:43;18.00;;;12.30;;
3712;SDS011;1872;51.406;6.856;2023-05-10T03:09:09;17.93;;;12.30;;
3712;SDS011;1872;51.406;6.856;2023-05-10T03:17:19;20.10;;;13.17;;
3712;SDS011;1872;51.406;6.856;2023-05-10T03:19:57;21.23;;;12.33;;
3712;SDS011;1872;51.406;6.856;2023-05-10T03:22:50;19.87;;;12.63;;
3712;SDS011;1872;51.406;6.856;2023-05-10T03:25:16;21.20;;;13.10;;
3712;SDS011;1872;51.406;6.856;2023-05-10T03:27:46;18.10;;;12.73;;
3712;SDS011;1872;51.406;6.856;2023-05-10T03:30:13;20.23;;;13.50;;
3712;SDS011;1872;51.406;6.856;2023-05-10T03:32:39;22.33;;;15.63;;
3712;SDS011;1872;51.406;6.856;2023-05-10T03:35:12;22.40;;;13.00;;
3712;SDS011;1872;51.406;6.856;2023-05-10T03:37:39;20.40;;;13.40;;
3712;SDS011;1872;51.406;6.856;2023-05-10T03:40:05;23.60;;;15.30;;
3712;SDS011;1872;51.406;6.856;2023-05-10T03:42:31;20.97;;;13.90;;
3712;SDS011;1872;51.406;6.856;2023-05-10T03:44:57;21.27;;;13.83;;
3712;SDS011;1872;51.406;6.856;2023-05-10T03:47:23;21.93;;;14.37;;
3712;SDS011;1872;51.406;6.856;2023-05-10T03:49:49;21.30;;;13.47;;
3712;SDS011;1872;51.406;6.856;2023-05-10T03:52:15;18.80;;;12.83;;
3712;SDS011;1872;51.406;6.856;2023-05-10T03:54:41;24.33;;;14.40;;
3712;SDS011;1872;51.406;6.856;2023-05-10T03:57:06;23.33;;;13.67;;
3712;SDS011;1872;51.406;6.856;2023-05-10T03:59:32;23.87;;;14.27;;
3712;SDS011;1872;51.406;6.856;2023-05-10T04:01:58;24.83;;;15.63;;
3712;SDS011;1872;51.406;6.856;2023-05-10T04:04:24;20.93;;;14.87;;
3712;SDS011;1872;51.406;6.856;2023-05-10T04:06:50;27.80;;;16.17;;
3712;SDS011;1872;51.406;6.856;2023-05-10T04:09:17;29.30;;;17.37;;
3712;SDS011;1872;51.406;6.856;2023-05-10T04:11:43;24.33;;;15.83;;
3712;SDS011;1872;51.406;6.856;2023-05-10T04:14:08;27.73;;;15.57;;
3712;SDS011;1872;51.406;6.856;2023-05-10T04:16:34;26.03;;;15.93;;
3712;SDS011;1872;51.406;6.856;2023-05-10T04:19:03;26.30;;;17.20;;
3712;SDS011;1872;51.406;6.856;2023-05-10T04:21:29;28.87;;;16.70;;
3712;SDS011;1872;51.406;6.856;2023-05-10T04:23:55;26.87;;;15.67;;
3712;SDS011;1872;51.406;6.856;2023-05-10T04:26:22;28.53;;;17.10;;
3712;SDS011;1872;51.406;6.856;2023-05-10T04:28:47;24.77;;;15.60;;
3712;SDS011;1872;51.406;6.856;2023-05-10T04:31:13;24.97;;;16.23;;
3712;SDS011;1872;51.406;6.856;2023-05-10T04:33:40;26.73;;;15.87;;
3712;SDS011;1872;51.406;6.856;2023-05-10T04:36:05;31.07;;;18.37;;
3712;SDS011;1872;51.406;6.856;2023-05-10T04:38:32;26.70;;;15.50;;
3712;SDS011;1872;51.406;6.856;2023-05-10T04:41:04;29.73;;;18.33;;
3712;SDS011;1872;51.406;6.856;2023-05-10T04:43:34;27.00;;;18.90;;
3712;SDS011;1872;51.406;6.856;2023-05-10T04:46:01;28.57;;;16.73;;
3712;SDS011;1872;51.406;6.856;2023-05-10T04:48:27;30.60;;;19.00;;
3712;SDS011;1872;51.406;6.856;2023-05-10T04:50:54;27.50;;;17.67;;
3712;SDS011;1872;51.406;6.856;2023-05-10T04:53:20;34.50;;;20.77;;
3712;SDS011;1872;51.406;6.856;2023-05-10T04:55:46;37.30;;;21.87;;
3712;SDS011;1872;51.406;6.856;2023-05-10T04:58:13;28.60;;;18.20;;
3712;SDS011;1872;51.406;6.856;2023-05-10T05:00:39;33.90;;;21.63;;
3712;SDS011;1872;51.406;6.856;2023-05-10T05:03:05;39.13;;;21.47;;
3712;SDS011;1872;51.406;6.856;2023-05-10T05:05:31;34.73;;;20.17;;
3712;SDS011;1872;51.406;6.856;2023-05-10T05:07:57;32.03;;;18.50;;
3712;SDS011;1872;51.406;6.856;2023-05-10T05:10:23;32.93;;;20.33;;
3712;SDS011;1872;51.406;6.856;2023-05-10T05:12:49;36.80;;;21.10;;
3712;SDS011;1872;51.406;6.856;2023-05-10T05:15:15;36.10;;;21.80;;
3712;SDS011;1872;51.406;6.856;2023-05-10T05:17:42;42.37;;;22.47;;
3712;SDS011;1872;51.406;6.856;2023-05-10T05:20:08;31.23;;;19.37;;
3712;SDS011;1872;51.406;6.856;2023-05-10T05:22:44;36.03;;;20.83;;
3712;SDS011;1872;51.406;6.856;2023-05-10T05:25:11;36.20;;;21.70;;
3712;SDS011;1872;51.406;6.856;2023-05-10T05:27:37;34.17;;;22.47;;
3712;SDS011;1872;51.406;6.856;2023-05-10T05:30:03;31.77;;;21.20;;
3712;SDS011;1872;51.406;6.856;2023-05-10T05:32:29;33.27;;;21.40;;
3712;SDS011;1872;51.406;6.856;2023-05-10T05:34:55;39.17;;;21.50;;
3712;SDS011;1872;51.406;6.856;2023-05-10T05:37:21;33.87;;;19.00;;
3712;SDS011;1872;51.406;6.856;2023-05-10T05:39:48;38.03;;;22.00;;
3712;SDS011;1872;51.406;6.856;2023-05-10T05:42:14;34.17;;;21.07;;
3712;SDS011;1872;51.406;6.856;2023-05-10T05:44:41;38.83;;;20.03;;
3712;SDS011;1872;51.406;6.856;2023-05-10T05:47:08;33.70;;;21.07;;
3712;SDS011;1872;51.406;6.856;2023-05-10T05:49:34;33.83;;;19.50;;
3712;SDS011;1872;51.406;6.856;2023-05-10T05:52:00;39.10;;;20.00;;
3712;SDS011;1872;51.406;6.856;2023-05-10T05:54:28;34.50;;;22.20;;
3712;SDS011;1872;51.406;6.856;2023-05-10T05:56:55;38.60;;;22.33;;
3712;SDS011;1872;51.406;6.856;2023-05-10T05:59:22;34.27;;;22.43;;
3712;SDS011;1872;51.406;6.856;2023-05-10T06:01:48;35.90;;;20.73;;
3712;SDS011;1872;51.406;6.856;2023-05-10T06:04:14;36.67;;;21.60;;
3712;SDS011;1872;51.406;6.856;2023-05-10T06:06:43;38.77;;;21.70;;
3712;SDS011;1872;51.406;6.856;2023-05-10T06:09:36;39.77;;;22.20;;
3712;SDS011;1872;51.406;6.856;2023-05-10T06:15:10;31.60;;;19.60;;
3712;SDS011;1872;51.406;6.856;2023-05-10T06:17:36;41.73;;;21.33;;
3712;SDS011;1872;51.406;6.856;2023-05-10T06:20:17;41.27;;;22.00;;
3712;SDS011;1872;51.406;6.856;2023-05-10T06:22:43;34.63;;;21.17;;
3712;SDS011;1872;51.406;6.856;2023-05-10T06:27:53;36.20;;;21.63;;
3712;SDS011;1872;51.406;6.856;2023-05-10T06:30:22;40.17;;;21.93;;
3712;SDS011;1872;51.406;6.856;2023-05-10T06:32:52;36.73;;;21.50;;
3712;SDS011;1872;51.406;6.856;2023-05-10T06:38:13;47.43;;;24.47;;
3712;SDS011;1872;51.406;6.856;2023-05-10T06:40:41;46.33;;;25.20;;
3712;SDS011;1872;51.406;6.856;2023-05-10T06:43:08;43.93;;;24.50;;
3712;SDS011;1872;51.406;6.856;2023-05-10T06:45:34;45.07;;;25.30;;
3712;SDS011;1872;51.406;6.856;2023-05-10T06:47:59;45.77;;;25.27;;
3712;SDS011;1872;51.406;6.856;2023-05-10T06:50:26;44.60;;;23.33;;
3712;SDS011;1872;51.406;6.856;2023-05-10T06:52:51;48.20;;;25.40;;
3712;SDS011;1872;51.406;6.856;2023-05-10T06:55:17;44.70;;;25.27;;
3712;SDS011;1872;51.406;6.856;2023-05-10T06:57:44;47.23;;;24.73;;
3712;SDS011;1872;51.406;6.856;2023-05-10T07:00:10;39.13;;;23.63;;
3712;SDS011;1872;51.406;6.856;2023-05-10T07:02:38;40.83;;;23.40;;
3712;SDS011;1872;51.406;6.856;2023-05-10T07:05:04;44.40;;;24.93;;
3712;SDS011;1872;51.406;6.856;2023-05-10T07:07:30;42.60;;;24.10;;
3712;SDS011;1872;51.406;6.856;2023-05-10T07:09:56;41.63;;;23.00;;
3712;SDS011;1872;51.406;6.856;2023-05-10T07:12:22;34.93;;;21.93;;
3712;SDS011;1872;51.406;6.856;2023-05-10T07:14:49;40.03;;;22.00;;
3712;SDS011;1872;51.406;6.856;2023-05-10T07:17:15;39.37;;;22.20;;
3712;SDS011;1872;51.406;6.856;2023-05-10T07:19:41;40.33;;;22.47;;
3712;SDS011;1872;51.406;6.856;2023-05-10T07:22:07;42.43;;;23.17;;
3712;SDS011;1872;51.406;6.856;2023-05-10T07:24:33;38.23;;;21.30;;
3712;SDS011;1872;51.406;6.856;2023-05-10T07:27:00;42.23;;;24.23;;
3712;SDS011;1872;51.406;6.856;2023-05-10T07:29:26;45.33;;;24.13;;
3712;SDS011;1872;51.406;6.856;2023-05-10T07:31:51;43.93;;;23.90;;
3712;SDS011;1872;51.406;6.856;2023-05-10T07:34:18;43.07;;;22.27;;
3712;SDS011;1872;51.406;6.856;2023-05-10T07:36:44;40.07;;;22.20;;
3712;SDS011;1872;51.406;6.856;2023-05-10T07:39:10;35.77;;;20.60;;
3712;SDS011;1872;51.406;6.856;2023-05-10T07:41:36;42.50;;;23.47;;
3712;SDS011;1872;51.406;6.856;2023-05-10T07:44:02;34.87;;;21.70;;
3712;SDS011;1872;51.406;6.856;2023-05-10T07:46:28;33.13;;;20.77;;
3712;SDS011;1872;51.406;6.856;2023-05-10T07:48:55;35.87;;;20.70;;
3712;SDS011;1872;51.406;6.856;2023-05-10T07:51:21;34.17;;;19.13;;
3712;SDS011;1872;51.406;6.856;2023-05-10T07:53:47;37.97;;;23.17;;
3712;SDS011;1872;51.406;6.856;2023-05-10T07:59:15;30.93;;;18.50;;
3712;SDS011;1872;51.406;6.856;2023-05-10T08:01:42;33.97;;;20.23;;
3712;SDS011;1872;51.406;6.856;2023-05-10T08:04:09;37.50;;;21.10;;
3712;SDS011;1872;51.406;6.856;2023-05-10T08:06:36;29.23;;;18.13;;
3712;SDS011;1872;51.406;6.856;2023-05-10T08:09:03;33.50;;;19.03;;
3712;SDS011;1872;51.406;6.856;2023-05-10T08:11:29;30.17;;;18.50;;
3712;SDS011;1872;51.406;6.856;2023-05-10T08:13:55;36.53;;;19.60;;
3712;SDS011;1872;51.406;6.856;2023-05-10T08:16:20;35.47;;;19.90;;
3712;SDS011;1872;51.406;6.856;2023-05-10T08:18:46;33.43;;;20.00;;
3712;SDS011;1872;51.406;6.856;2023-05-10T08:21:13;36.77;;;19.00;;
3712;SDS011;1872;51.406;6.856;2023-05-10T08:23:39;32.33;;;19.70;;
3712;SDS011;1872;51.406;6.856;2023-05-10T08:26:05;32.93;;;19.30;;
3712;SDS011;1872;51.406;6.856;2023-05-10T08:28:31;32.90;;;20.80;;
3712;SDS011;1872;51.406;6.856;2023-05-10T08:30:57;31.70;;;18.27;;
3712;SDS011;1872;51.406;6.856;2023-05-10T08:33:23;29.23;;;19.03;;
3712;SDS011;1872;51.406;6.856;2023-05-10T08:35:49;29.67;;;18.20;;
3712;SDS011;1872;51.406;6.856;2023-05-10T08:38:16;31.10;;;18.70;;
3712;SDS011;1872;51.406;6.856;2023-05-10T08:40:43;31.90;;;18.50;;
3712;SDS011;1872;51.406;6.856;2023-05-10T08:43:10;32.70;;;19.60;;
3712;SDS011;1872;51.406;6.856;2023-05-10T08:45:38;34.80;;;19.60;;
3712;SDS011;1872;51.406;6.856;2023-05-10T08:48:06;34.80;;;19.83;;
3712;SDS011;1872;51.406;6.856;2023-05-10T08:50:36;34.80;;;20.60;;
3712;SDS011;1872;51.406;6.856;2023-05-10T08:53:10;34.13;;;20.43;;
3712;SDS011;1872;51.406;6.856;2023-05-10T08:55:37;35.80;;;21.13;;
3712;SDS011;1872;51.406;6.856;2023-05-10T08:58:08;34.27;;;20.67;;
3712;SDS011;1872;51.406;6.856;2023-05-10T09:00:34;35.50;;;20.50;;
3712;SDS011;1872;51.406;6.856;2023-05-10T09:03:02;35.60;;;21.10;;
3712;SDS011;1872;51.406;6.856;2023-05-10T09:05:30;37.13;;;22.17;;
3712;SDS011;1872;51.406;6.856;2023-05-10T09:07:56;39.47;;;19.93;;
3712;SDS011;1872;51.406;6.856;2023-05-10T09:10:22;44.07;;;23.60;;
3712;SDS011;1872;51.406;6.856;2023-05-10T09:12:51;40.87;;;23.37;;
3712;SDS011;1872;51.406;6.856;2023-05-10T09:15:18;38.17;;;20.83;;
3712;SDS011;1872;51.406;6.856;2023-05-10T09:17:44;33.27;;;20.50;;
3712;SDS011;1872;51.406;6.856;2023-05-10T09:20:11;41.00;;;22.43;;
3712;SDS011;1872;51.406;6.856;2023-05-10T09:22:37;38.47;;;21.47;;
3712;SDS011;1872;51.406;6.856;2023-05-10T09:25:16;31.33;;;18.40;;
3712;SDS011;1872;51.406;6.856;2023-05-10T09:27:45;30.33;;;18.00;;
3712;SDS011;1872;51.406;6.856;2023-05-10T09:30:15;29.53;;;18.70;;
3712;SDS011;1872;51.406;6.856;2023-05-10T09:32:52;30.60;;;18.70;;
3712;SDS011;1872;51.406;6.856;2023-05-10T09:35:19;32.57;;;19.40;;
3712;SDS011;1872;51.406;6.856;2023-05-10T09:37:51;28.73;;;17.80;;
3712;SDS011;1872;51.406;6.856;2023-05-10T09:40:23;26.50;;;16.23;;
3712;SDS011;1872;51.406;6.856;2023-05-10T09:43:08;25.73;;;15.80;;
3712;SDS011;1872;51.406;6.856;2023-05-10T09:45:36;27.40;;;14.97;;
3712;SDS011;1872;51.406;6.856;2023-05-10T09:48:02;28.00;;;16.30;;
3712;SDS011;1872;51.406;6.856;2023-05-10T09:50:29;26.67;;;16.67;;
3712;SDS011;1872;51.406;6.856;2023-05-10T09:55:40;23.00;;;13.90;;
3712;SDS011;1872;51.406;6.856;2023-05-10T09:58:10;22.20;;;14.30;;
3712;SDS011;1872;51.406;6.856;2023-05-10T10:00:38;21.00;;;13.70;;
3712;SDS011;1872;51.406;6.856;2023-05-10T10:03:05;20.67;;;12.60;;
3712;SDS011;1872;51.406;6.856;2023-05-10T10:05:34;23.60;;;15.17;;
3712;SDS011;1872;51.406;6.856;2023-05-10T10:08:04;22.27;;;13.83;;
3712;SDS011;1872;51.406;6.856;2023-05-10T10:10:30;22.83;;;14.37;;
3712;SDS011;1872;51.406;6.856;2023-05-10T10:12:57;21.90;;;15.50;;
3712;SDS011;1872;51.406;6.856;2023-05-10T10:15:24;24.70;;;16.97;;
3712;SDS011;1872;51.406;6.856;2023-05-10T10:17:50;18.87;;;12.97;;
3712;SDS011;1872;51.406;6.856;2023-05-10T10:20:17;21.63;;;14.10;;
3712;SDS011;1872;51.406;6.856;2023-05-10T10:22:44;20.43;;;14.20;;
3712;SDS011;1872;51.406;6.856;2023-05-10T10:25:12;26.53;;;15.97;;
3712;SDS011;1872;51.406;6.856;2023-05-10T10:28:22;23.67;;;15.47;;
3712;SDS011;1872;51.406;6.856;2023-05-10T10:30:43;20.77;;;12.80;;
3712;SDS011;1872;51.406;6.856;2023-05-10T10:35:58;21.53;;;12.23;;
3712;SDS011;1872;51.406;6.856;2023-05-10T10:38:25;23.63;;;13.50;;
3712;SDS011;1872;51.406;6.856;2023-05-10T10:41:04;19.70;;;12.70;;
3712;SDS011;1872;51.406;6.856;2023-05-10T10:43:35;18.57;;;12.93;;
3712;SDS011;1872;51.406;6.856;2023-05-10T10:46:14;21.57;;;14.53;;
3712;SDS011;1872;51.406;6.856;2023-05-10T10:48:49;21.37;;;13.17;;
3712;SDS011;1872;51.406;6.856;2023-05-10T10:51:16;20.37;;;13.00;;
3712;SDS011;1872;51.406;6.856;2023-05-10T10:56:37;17.53;;;12.43;;
3712;SDS011;1872;51.406;6.856;2023-05-10T10:59:03;21.80;;;14.07;;
3712;SDS011;1872;51.406;6.856;2023-05-10T11:01:33;25.03;;;14.73;;
3712;SDS011;1872;51.406;6.856;2023-05-10T11:06:31;21.23;;;14.70;;
3712;SDS011;1872;51.406;6.856;2023-05-10T11:09:09;20.07;;;13.57;;
3712;SDS011;1872;51.406;6.856;2023-05-10T11:11:48;20.87;;;13.47;;
3712;SDS011;1872;51.406;6.856;2023-05-10T11:14:20;22.63;;;15.07;;
3712;SDS011;1872;51.406;6.856;2023-05-10T11:16:50;20.10;;;14.73;;
3712;SDS011;1872;51.406;6.856;2023-05-10T11:19:16;24.10;;;18.23;;
3712;SDS011;1872;51.406;6.856;2023-05-10T11:24:30;22.17;;;15.43;;
3712;SDS011;1872;51.406;6.856;2023-05-10T11:26:56;20.53;;;12.90;;
3712;SDS011;1872;51.406;6.856;2023-05-10T11:29:22;17.90;;;11.70;;
3712;SDS011;1872;51.406;6.856;2023-05-10T11:31:48;18.20;;;12.43;;
3712;SDS011;1872;51.406;6.856;2023-05-10T11:34:25;18.50;;;12.93;;
3712;SDS011;1872;51.406;6.856;2023-05-10T11:36:56;20.17;;;13.00;;
3712;SDS011;1872;51.406;6.856;2023-05-10T11:39:34;14.83;;;12.57;;
3712;SDS011;1872;51.406;6.856;2023-05-10T11:42:00;17.30;;;12.73;;
3712;SDS011;1872;51.406;6.856;2023-05-10T11:44:30;15.97;;;11.00;;
3712;SDS011;1872;51.406;6.856;2023-05-10T11:47:03;20.33;;;13.20;;
3712;SDS011;1872;51.406;6.856;2023-05-10T11:49:30;14.27;;;11.10;;
3712;SDS011;1872;51.406;6.856;2023-05-10T11:52:06;16.33;;;10.93;;
3712;SDS011;1872;51.406;6.856;2023-05-10T11:54:33;15.50;;;11.00;;
3712;SDS011;1872;51.406;6.856;2023-05-10T11:57:00;15.43;;;11.20;;
3712;SDS011;1872;51.406;6.856;2023-05-10T11:59:25;14.33;;;11.80;;
3712;SDS011;1872;51.406;6.856;2023-05-10T12:01:51;18.50;;;11.80;;
3712;SDS011;1872;51.406;6.856;2023-05-10T12:04:17;12.63;;;9.63;;
3712;SDS011;1872;51.406;6.856;2023-05-10T12:06:43;12.60;;;10.27;;
3712;SDS011;1872;51.406;6.856;2023-05-10T12:09:10;12.43;;;9.77;;
3712;SDS011;1872;51.406;6.856;2023-05-10T12:11:36;13.50;;;9.63;;
3712;SDS011;1872;51.406;6.856;2023-05-10T12:14:04;11.30;;;8.60;;
3712;SDS011;1872;51.406;6.856;2023-05-10T12:16:30;9.60;;;8.17;;
3712;SDS011;1872;51.406;6.856;2023-05-10T12:18:57;11.50;;;8.70;;
3712;SDS011;1872;51.406;6.856;2023-05-10T12:21:24;10.03;;;7.63;;
3712;SDS011;1872;51.406;6.856;2023-05-10T12:23:52;8.43;;;7.50;;
3712;SDS011;1872;51.406;6.856;2023-05-10T12:26:23;8.40;;;6.13;;
3712;SDS011;1872;51.406;6.856;2023-05-10T12:28:52;11.43;;;7.40;;
3712;SDS011;1872;51.406;6.856;2023-05-10T12:31:18;10.23;;;7.27;;
3712;SDS011;1872;51.406;6.856;2023-05-10T12:33:44;8.90;;;6.60;;
3712;SDS011;1872;51.406;6.856;2023-05-10T12:36:12;9.17;;;7.27;;
3712;SDS011;1872;51.406;6.856;2023-05-10T12:38:43;9.50;;;7.33;;
3712;SDS011;1872;51.406;6.856;2023-05-10T12:41:14;10.67;;;7.87;;
3712;SDS011;1872;51.406;6.856;2023-05-10T12:43:41;8.33;;;7.30;;
3712;SDS011;1872;51.406;6.856;2023-05-10T12:46:11;8.93;;;7.07;;
3712;SDS011;1872;51.406;6.856;2023-05-10T12:48:40;10.70;;;8.80;;
3712;SDS011;1872;51.406;6.856;2023-05-10T12:51:07;10.90;;;7.97;;
3712;SDS011;1872;51.406;6.856;2023-05-10T12:53:40;13.23;;;7.93;;
3712;SDS011;1872;51.406;6.856;2023-05-10T12:56:07;9.73;;;7.73;;
3712;SDS011;1872;51.406;6.856;2023-05-10T12:58:34;11.33;;;8.27;;
3712;SDS011;1872;51.406;6.856;2023-05-10T13:01:00;7.90;;;6.93;;
3712;SDS011;1872;51.406;6.856;2023-05-10T13:03:26;9.73;;;7.50;;
3712;SDS011;1872;51.406;6.856;2023-05-10T13:05:52;9.90;;;7.53;;
3712;SDS011;1872;51.406;6.856;2023-05-10T13:08:20;12.10;;;8.27;;
3712;SDS011;1872;51.406;6.856;2023-05-10T13:10:49;12.40;;;8.37;;
3712;SDS011;1872;51.406;6.856;2023-05-10T13:13:15;9.70;;;6.77;;
3712;SDS011;1872;51.406;6.856;2023-05-10T13:15:41;8.80;;;7.10;;
3712;SDS011;1872;51.406;6.856;2023-05-10T13:18:07;8.82;;;6.50;;
3712;SDS011;1872;51.406;6.856;2023-05-10T13:20:33;8.17;;;7.00;;
3712;SDS011;1872;51.406;6.856;2023-05-10T13:22:59;8.83;;;7.83;;
3712;SDS011;1872;51.406;6.856;2023-05-10T13:25:28;6.80;;;6.20;;
3712;SDS011;1872;51.406;6.856;2023-05-10T13:27:53;9.77;;;7.97;;
3712;SDS011;1872;51.406;6.856;2023-05-10T13:30:19;9.33;;;8.10;;
3712;SDS011;1872;51.406;6.856;2023-05-10T13:32:45;8.50;;;6.97;;
3712;SDS011;1872;51.406;6.856;2023-05-10T13:35:11;10.73;;;6.80;;
3712;SDS011;1872;51.406;6.856;2023-05-10T13:37:37;8.90;;;7.70;;
3712;SDS011;1872;51.406;6.856;2023-05-10T13:40:05;9.10;;;8.20;;
3712;SDS011;1872;51.406;6.856;2023-05-10T13:42:52;10.23;;;9.23;;
3712;SDS011;1872;51.406;6.856;2023-05-10T13:45:19;11.47;;;9.00;;
3712;SDS011;1872;51.406;6.856;2023-05-10T13:47:45;13.73;;;10.63;;
3712;SDS011;1872;51.406;6.856;2023-05-10T13:50:11;11.73;;;9.70;;
3712;SDS011;1872;51.406;6.856;2023-05-10T13:52:37;12.07;;;10.40;;
3712;SDS011;1872;51.406;6.856;2023-05-10T13:55:05;13.60;;;11.70;;
3712;SDS011;1872;51.406;6.856;2023-05-10T13:57:32;12.67;;;10.63;;
3712;SDS011;1872;51.406;6.856;2023-05-10T14:00:00;13.90;;;11.10;;
3712;SDS011;1872;51.406;6.856;2023-05-10T14:02:26;15.67;;;11.37;;
3712;SDS011;1872;51.406;6.856;2023-05-10T14:04:52;15.53;;;12.73;;
3712;SDS011;1872;51.406;6.856;2023-05-10T14:07:22;19.50;;;13.17;;
3712;SDS011;1872;51.406;6.856;2023-05-10T14:09:48;13.80;;;11.77;;
3712;SDS011;1872;51.406;6.856;2023-05-10T14:12:13;15.80;;;12.13;;
3712;SDS011;1872;51.406;6.856;2023-05-10T14:14:39;16.30;;;12.70;;
3712;SDS011;1872;51.406;6.856;2023-05-10T14:17:05;18.97;;;14.10;;
3712;SDS011;1872;51.406;6.856;2023-05-10T14:19:31;15.10;;;13.00;;
3712;SDS011;1872;51.406;6.856;2023-05-10T14:21:59;18.83;;;13.33;;
3712;SDS011;1872;51.406;6.856;2023-05-10T14:24:25;13.50;;;11.53;;
3712;SDS011;1872;51.406;6.856;2023-05-10T14:26:50;13.33;;;9.63;;
3712;SDS011;1872;51.406;6.856;2023-05-10T14:29:21;12.77;;;10.77;;
3712;SDS011;1872;51.406;6.856;2023-05-10T14:31:47;13.53;;;11.10;;
3712;SDS011;1872;51.406;6.856;2023-05-10T14:34:13;14.93;;;11.60;;
3712;SDS011;1872;51.406;6.856;2023-05-10T14:36:41;14.17;;;12.30;;
3712;SDS011;1872;51.406;6.856;2023-05-10T14:39:09;16.47;;;11.93;;
3712;SDS011;1872;51.406;6.856;2023-05-10T14:41:39;16.63;;;11.90;;
3712;SDS011;1872;51.406;6.856;2023-05-10T14:44:14;14.30;;;11.77;;
3712;SDS011;1872;51.406;6.856;2023-05-10T14:46:40;19.27;;;14.47;;
3712;SDS011;1872;51.406;6.856;2023-05-10T14:49:06;17.27;;;12.93;;
3712;SDS011;1872;51.406;6.856;2023-05-10T14:51:36;14.90;;;11.07;;
3712;SDS011;1872;51.406;6.856;2023-05-10T14:54:01;15.70;;;12.10;;
3712;SDS011;1872;51.406;6.856;2023-05-10T14:56:27;14.80;;;10.77;;
3712;SDS011;1872;51.406;6.856;2023-05-10T14:58:56;15.07;;;11.20;;
3712;SDS011;1872;51.406;6.856;2023-05-10T15:01:22;17.87;;;13.30;;
3712;SDS011;1872;51.406;6.856;2023-05-10T15:03:47;18.37;;;12.30;;
3712;SDS011;1872;51.406;6.856;2023-05-10T15:06:14;19.60;;;12.83;;
3712;SDS011;1872;51.406;6.856;2023-05-10T15:08:43;19.37;;;14.43;;
3712;SDS011;1872;51.406;6.856;2023-05-10T15:11:08;18.17;;;13.70;;
3712;SDS011;1872;51.406;6.856;2023-05-10T15:13:34;20.83;;;16.10;;
3712;SDS011;1872;51.406;6.856;2023-05-10T15:16:00;21.23;;;14.30;;
3712;SDS011;1872;51.406;6.856;2023-05-10T15:18:43;19.47;;;14.53;;
3712;SDS011;1872;51.406;6.856;2023-05-10T15:21:09;21.20;;;15.50;;
3712;SDS011;1872;51.406;6.856;2023-05-10T15:23:35;18.93;;;14.17;;
3712;SDS011;1872;51.406;6.856;2023-05-10T15:26:03;17.43;;;13.50;;
3712;SDS011;1872;51.406;6.856;2023-05-10T15:28:30;17.77;;;12.87;;
3712;SDS011;1872;51.406;6.856;2023-05-10T15:30:55;17.93;;;12.77;;
3712;SDS011;1872;51.406;6.856;2023-05-10T15:33:21;19.10;;;12.93;;
3712;SDS011;1872;51.406;6.856;2023-05-10T15:35:47;16.90;;;12.90;;
3712;SDS011;1872;51.406;6.856;2023-05-10T15:38:14;18.33;;;13.97;;
3712;SDS011;1872;51.406;6.856;2023-05-10T15:40:40;17.13;;;12.80;;